Time;durP1;ratioP1;P1;durP2;ratioP2;P2;SDS_P1;SDS_P2;PMS_P1;PMS_P2;Temp;Humidity;BMP_temperature;BMP_pressure;BME280_temperature;BME280_humidity;BME280_pressure;Samples;Min_cycle;Max_cycle;Signal;HPM_P1;HPM_P2
2022/12/09 00:02:13;;;;;;;8.90;7.03;;;6.00;99.90;;;;;;4968437;28;20282;-76
2022/12/09 00:04:39;;;;;;;6.60;5.87;;;5.90;99.90;;;;;;4969821;28;20590;-76
2022/12/09 00:07:05;;;;;;;9.37;6.83;;;5.90;99.90;;;;;;4968142;28;20306;-76
2022/12/09 00:09:31;;;;;;;8.20;6.47;;;5.90;99.90;;;;;;4968696;28;20179;-76
2022/12/09 00:11:56;;;;;;;6.27;5.03;;;5.90;99.90;;;;;;4969965;28;20258;-77
2022/12/09 00:14:22;;;;;;;10.57;6.30;;;5.90;99.90;;;;;;4969936;28;20184;-75
2022/12/09 00:16:48;;;;;;;7.30;5.80;;;5.90;99.90;;;;;;4972255;28;20215;-76
2022/12/09 00:19:13;;;;;;;9.60;6.93;;;5.80;99.90;;;;;;4973126;28;20577;-76
2022/12/09 00:21:41;;;;;;;8.73;6.50;;;5.70;99.90;;;;;;4972801;28;20179;-77
2022/12/09 00:24:10;;;;;;;8.18;5.72;;;5.70;99.90;;;;;;4971473;28;20667;-77
2022/12/09 00:26:35;;;;;;;9.02;5.43;;;5.70;99.90;;;;;;4971826;28;20213;-77
2022/12/09 00:29:01;;;;;;;7.87;6.00;;;5.60;99.90;;;;;;4971773;28;20239;-77
2022/12/09 00:31:33;;;;;;;8.90;6.10;;;5.60;99.90;;;;;;4970596;28;20182;-77
2022/12/09 00:34:02;;;;;;;6.68;5.07;;;5.60;99.90;;;;;;4971017;28;20587;-77
2022/12/09 00:36:28;;;;;;;8.05;5.30;;;5.50;99.90;;;;;;4987755;28;20591;-77
2022/12/09 00:38:56;;;;;;;6.95;5.60;;;5.50;99.90;;;;;;4971855;28;20172;-76
2022/12/09 00:41:22;;;;;;;6.63;5.65;;;5.50;99.90;;;;;;4971221;28;20207;-76
2022/12/09 00:43:49;;;;;;;9.23;5.70;;;5.40;99.90;;;;;;4972704;28;20179;-76
2022/12/09 00:46:15;;;;;;;5.10;4.53;;;5.40;99.90;;;;;;4971243;28;20215;-76
2022/12/09 00:48:42;;;;;;;6.53;4.63;;;5.40;99.90;;;;;;4973023;28;20651;-77
2022/12/09 00:51:11;;;;;;;6.82;4.70;;;5.40;99.90;;;;;;4970906;28;20175;-77
2022/12/09 00:53:37;;;;;;;8.73;4.65;;;5.40;99.90;;;;;;4971196;28;20602;-76
2022/12/09 00:56:04;;;;;;;6.60;5.88;;;5.30;99.90;;;;;;4971395;28;20195;-76
2022/12/09 00:58:30;;;;;;;5.90;4.45;;;5.30;99.90;;;;;;4972731;28;20708;-76
2022/12/09 01:00:56;;;;;;;6.60;4.85;;;5.30;99.90;;;;;;4971714;28;20275;-76
2022/12/09 01:03:23;;;;;;;8.33;4.60;;;5.30;99.90;;;;;;4971863;28;20336;-76
2022/12/09 01:05:49;;;;;;;6.15;4.70;;;5.30;99.90;;;;;;4987104;28;20703;-76
2022/12/09 01:08:15;;;;;;;5.45;4.32;;;5.30;99.90;;;;;;4987278;28;20178;-76
2022/12/09 01:10:42;;;;;;;7.03;4.35;;;5.40;99.90;;;;;;4971417;28;20203;-77
2022/12/09 01:13:09;;;;;;;6.88;3.95;;;5.40;99.90;;;;;;4970308;28;20262;-77
2022/12/09 01:15:36;;;;;;;6.22;3.88;;;5.40;99.90;;;;;;4971205;28;20168;-76
2022/12/09 01:18:02;;;;;;;5.20;3.97;;;5.40;99.90;;;;;;4954751;28;20246;-76
2022/12/09 01:20:28;;;;;;;6.78;4.78;;;5.40;99.90;;;;;;4970932;28;20653;-76
2022/12/09 01:22:54;;;;;;;6.20;4.80;;;5.40;99.90;;;;;;4970423;28;20182;-76
2022/12/09 01:25:19;;;;;;;5.90;4.63;;;5.40;99.90;;;;;;4972082;28;20180;-77
2022/12/09 01:27:45;;;;;;;7.40;5.23;;;5.40;99.90;;;;;;4972198;28;20678;-76
2022/12/09 01:30:12;;;;;;;9.93;5.80;;;5.30;99.90;;;;;;4970716;28;20262;-76
2022/12/09 01:32:38;;;;;;;15.40;5.65;;;5.30;99.90;;;;;;4969950;28;20207;-76
2022/12/09 01:35:05;;;;;;;7.85;5.50;;;5.30;99.90;;;;;;4971736;28;20164;-76
2022/12/09 01:37:31;;;;;;;6.63;4.90;;;5.30;99.90;;;;;;4956693;28;20203;-76
2022/12/09 01:39:57;;;;;;;6.90;5.32;;;5.30;99.90;;;;;;4979404;28;20179;-77
2022/12/09 01:42:25;;;;;;;6.07;5.00;;;5.30;99.90;;;;;;4989700;28;20347;-77
2022/12/09 01:45:18;;;;;;;6.90;5.32;;;5.30;99.90;;;;;;4991124;28;20183;-76
2022/12/09 01:48:18;;;;;;;7.68;5.20;;;5.30;99.90;;;;;;4987887;28;20242;-77
2022/12/09 01:50:59;;;;;;;6.07;5.40;;;5.30;99.90;;;;;;4979409;28;20184;-76
2022/12/09 01:53:29;;;;;;;6.90;5.70;;;5.30;99.90;;;;;;4970040;28;20164;-76
2022/12/09 01:55:59;;;;;;;6.97;5.70;;;5.30;99.90;;;;;;4986767;28;20179;-76
2022/12/09 01:58:26;;;;;;;9.15;5.43;;;5.30;99.90;;;;;;4970484;28;20230;-76
2022/12/09 02:00:52;;;;;;;9.98;5.60;;;5.30;99.90;;;;;;4970645;28;20193;-76
2022/12/09 02:03:20;;;;;;;6.80;5.65;;;5.30;99.90;;;;;;4963752;28;20180;-76
2022/12/09 02:05:46;;;;;;;6.95;5.95;;;5.30;99.90;;;;;;4986168;28;20190;-76
2022/12/09 02:08:16;;;;;;;8.45;5.85;;;5.30;99.90;;;;;;4953940;28;20529;-76
2022/12/09 02:11:12;;;;;;;6.80;5.88;;;5.30;99.90;;;;;;4971856;28;20243;-76
2022/12/09 02:14:09;;;;;;;9.10;5.03;;;5.30;99.90;;;;;;4955542;28;20271;-76
2022/12/09 02:16:49;;;;;;;5.95;5.00;;;5.30;99.90;;;;;;4970200;28;20229;-76
2022/12/09 02:19:29;;;;;;;7.05;5.13;;;5.30;99.90;;;;;;4969579;28;20662;-76
2022/12/09 02:21:58;;;;;;;7.70;5.03;;;5.30;99.90;;;;;;4969612;28;20175;-76
2022/12/09 02:24:29;;;;;;;7.45;5.70;;;5.30;99.90;;;;;;4969100;28;20175;-76
2022/12/09 02:27:09;;;;;;;6.90;4.63;;;5.30;99.90;;;;;;4969387;28;20218;-76
2022/12/09 02:29:40;;;;;;;5.55;4.55;;;5.40;99.90;;;;;;5003622;28;20202;-76
2022/12/09 02:32:18;;;;;;;6.88;4.30;;;5.40;99.90;;;;;;5002086;28;20175;-76
2022/12/09 02:34:59;;;;;;;10.80;5.70;;;5.40;99.90;;;;;;4969075;28;20199;-76
2022/12/09 02:37:32;;;;;;;9.38;5.32;;;5.40;99.90;;;;;;4953034;28;20211;-77
2022/12/09 02:40:06;;;;;;;6.68;4.72;;;5.50;99.90;;;;;;4985721;28;20182;-77
2022/12/09 02:42:37;;;;;;;5.45;4.80;;;5.50;99.90;;;;;;5001487;28;20179;-77
2022/12/09 02:45:06;;;;;;;5.93;4.80;;;5.40;99.90;;;;;;4969782;28;20175;-77
2022/12/09 02:47:39;;;;;;;7.68;5.80;;;5.50;99.90;;;;;;4985213;28;20208;-77
2022/12/09 02:50:13;;;;;;;7.57;4.13;;;5.50;99.90;;;;;;4989446;28;20172;-77
2022/12/09 02:52:41;;;;;;;6.05;4.75;;;5.40;99.90;;;;;;4952703;28;20184;-76
2022/12/09 02:55:09;;;;;;;5.70;5.05;;;5.50;99.90;;;;;;5001738;28;20180;-77
2022/12/09 02:57:37;;;;;;;5.72;5.15;;;5.50;99.90;;;;;;5001493;28;20200;-76
2022/12/09 03:00:05;;;;;;;5.72;5.13;;;5.50;99.90;;;;;;4985769;28;20179;-76
2022/12/09 03:02:38;;;;;;;6.35;5.53;;;5.50;99.90;;;;;;5001121;28;20270;-76
2022/12/09 03:05:37;;;;;;;6.47;5.10;;;5.60;99.90;;;;;;4969484;28;20209;-77
2022/12/09 03:08:35;;;;;;;7.35;5.75;;;5.60;99.90;;;;;;4969233;28;20203;-76
2022/12/09 03:11:11;;;;;;;7.47;5.25;;;5.50;99.90;;;;;;4969392;28;20180;-77
2022/12/09 03:13:55;;;;;;;6.25;5.15;;;5.50;99.90;;;;;;5001210;28;20171;-77
2022/12/09 03:16:29;;;;;;;6.03;4.65;;;5.50;99.90;;;;;;4969057;28;20203;-77
2022/12/09 03:19:00;;;;;;;5.60;4.55;;;5.50;99.90;;;;;;4970430;28;20186;-76
2022/12/09 03:21:30;;;;;;;7.18;5.47;;;5.60;99.90;;;;;;4970315;28;20183;-76
2022/12/09 03:23:58;;;;;;;6.10;5.50;;;5.60;99.90;;;;;;4969826;28;20180;-77
2022/12/09 03:26:28;;;;;;;5.60;4.75;;;5.60;99.90;;;;;;4970455;28;20266;-76
2022/12/09 03:28:56;;;;;;;6.32;5.35;;;5.50;99.90;;;;;;4971813;28;20164;-76
2022/12/09 03:31:25;;;;;;;7.60;5.88;;;5.50;99.90;;;;;;4970005;28;20172;-77
2022/12/09 03:33:55;;;;;;;6.95;5.10;;;5.50;99.90;;;;;;5001030;28;20190;-77
2022/12/09 03:36:23;;;;;;;7.32;5.90;;;5.40;99.90;;;;;;5001664;28;20203;-77
2022/12/09 03:38:51;;;;;;;9.10;6.03;;;5.40;99.90;;;;;;4969162;28;20226;-76
2022/12/09 03:41:23;;;;;;;8.18;5.85;;;5.40;99.90;;;;;;4969850;28;20262;-76
2022/12/09 03:43:54;;;;;;;9.23;6.07;;;5.30;99.90;;;;;;4969643;28;20258;-76
2022/12/09 03:46:20;;;;;;;5.78;5.18;;;5.30;99.90;;;;;;4968414;28;20643;-76
2022/12/09 03:48:47;;;;;;;6.00;5.18;;;5.30;99.90;;;;;;4971290;28;20202;-76
2022/12/09 03:55:11;;;;;;;6.20;4.32;;;5.30;99.90;;;;;;5005274;28;20184;-76
2022/12/09 03:57:41;;;;;;;7.30;5.05;;;5.30;99.90;;;;;;4972607;28;20233;-77
2022/12/09 04:00:07;;;;;;;4.65;4.13;;;5.30;99.90;;;;;;4972531;28;20278;-76
2022/12/09 04:02:38;;;;;;;12.98;7.47;;;5.30;99.90;;;;;;5003940;28;20190;-76
2022/12/09 04:05:04;;;;;;;8.00;6.00;;;5.20;99.90;;;;;;4975155;28;20180;-76
2022/12/09 04:07:30;;;;;;;5.65;4.60;;;5.20;99.90;;;;;;4973163;28;20681;-76
2022/12/09 04:09:55;;;;;;;6.30;5.50;;;5.10;99.90;;;;;;4972653;28;20643;-77
2022/12/09 04:12:21;;;;;;;9.13;5.73;;;5.10;99.90;;;;;;4971508;28;20176;-76
2022/12/09 04:14:47;;;;;;;5.57;4.50;;;5.10;99.90;;;;;;4972438;28;20183;-76
2022/12/09 04:17:12;;;;;;;13.80;5.90;;;5.20;99.90;;;;;;4973432;28;20210;-77
2022/12/09 04:19:38;;;;;;;7.97;5.47;;;5.20;99.90;;;;;;5005169;28;20176;-76
2022/12/09 04:22:04;;;;;;;5.80;4.50;;;5.20;99.90;;;;;;4972527;28;20180;-77
2022/12/09 04:24:29;;;;;;;6.17;4.90;;;5.20;99.90;;;;;;4977309;28;20664;-77
2022/12/09 04:26:55;;;;;;;6.93;5.30;;;5.20;99.90;;;;;;4993501;28;20207;-76
2022/12/09 04:29:21;;;;;;;6.90;5.40;;;5.20;99.90;;;;;;4980281;28;20176;-76
2022/12/09 04:31:47;;;;;;;7.20;5.60;;;5.10;99.90;;;;;;5020652;28;20162;-76
2022/12/09 04:34:12;;;;;;;8.23;5.00;;;5.10;99.90;;;;;;4981709;28;20222;-76
2022/12/09 04:36:38;;;;;;;5.73;5.13;;;5.10;99.90;;;;;;4980633;28;20614;-76
2022/12/09 04:39:04;;;;;;;6.03;4.50;;;5.00;99.90;;;;;;4975752;28;20175;-76
2022/12/09 04:41:30;;;;;;;5.82;4.70;;;5.00;99.90;;;;;;4973609;28;20195;-76
2022/12/09 04:43:55;;;;;;;5.70;5.10;;;5.00;99.90;;;;;;4977493;28;20180;-76
2022/12/09 04:46:21;;;;;;;6.47;4.90;;;4.90;99.90;;;;;;4972393;28;20218;-76
2022/12/09 04:48:48;;;;;;;5.85;5.15;;;4.90;99.90;;;;;;4956321;28;20702;-75
2022/12/09 04:51:15;;;;;;;6.50;5.40;;;4.90;99.90;;;;;;4971605;28;20258;-76
2022/12/09 04:53:41;;;;;;;8.07;5.30;;;4.80;99.90;;;;;;4972033;28;20650;-76
2022/12/09 04:56:11;;;;;;;6.35;4.72;;;4.80;99.90;;;;;;4971744;28;20215;-76
2022/12/09 04:58:37;;;;;;;7.82;4.63;;;4.80;99.90;;;;;;4973231;28;20230;-77
2022/12/09 05:01:08;;;;;;;5.90;5.38;;;4.80;99.90;;;;;;4971695;28;20168;-76
2022/12/09 05:03:34;;;;;;;6.57;4.88;;;4.80;99.90;;;;;;4972809;28;20172;-76
2022/12/09 05:06:07;;;;;;;8.10;5.95;;;4.70;99.90;;;;;;4987042;28;20187;-76
2022/12/09 05:08:33;;;;;;;9.13;7.05;;;4.70;99.90;;;;;;4972720;28;20190;-76
2022/12/09 05:10:59;;;;;;;6.73;5.63;;;4.70;99.90;;;;;;4971698;28;20676;-76
2022/12/09 05:13:28;;;;;;;7.93;6.07;;;4.70;99.90;;;;;;4972281;28;20571;-76
2022/12/09 05:15:59;;;;;;;9.70;6.13;;;4.70;99.90;;;;;;4979302;28;20678;-76
2022/12/09 05:18:25;;;;;;;11.77;6.55;;;4.70;99.90;;;;;;4977027;28;20225;-76
2022/12/09 05:20:50;;;;;;;8.60;6.10;;;4.60;99.90;;;;;;4992318;28;20179;-76
2022/12/09 05:23:16;;;;;;;6.80;5.70;;;4.60;99.90;;;;;;4990494;28;20283;-76
2022/12/09 05:25:42;;;;;;;7.97;6.33;;;4.60;99.90;;;;;;4989755;28;20179;-77
2022/12/09 05:28:07;;;;;;;17.20;10.97;;;4.50;99.90;;;;;;4991261;28;20207;-76
2022/12/09 05:30:34;;;;;;;17.33;11.50;;;4.50;99.90;;;;;;4991187;28;20214;-76
2022/12/09 05:33:01;;;;;;;17.15;12.80;;;4.40;99.90;;;;;;4989825;28;20184;-77
2022/12/09 05:35:26;;;;;;;17.00;12.97;;;4.30;99.90;;;;;;4990290;28;20183;-77
2022/12/09 05:37:52;;;;;;;14.50;12.13;;;4.30;99.90;;;;;;4991026;28;20199;-77
2022/12/09 05:40:18;;;;;;;16.00;11.43;;;4.30;99.90;;;;;;4991319;28;20229;-77
2022/12/09 05:42:44;;;;;;;12.27;8.23;;;4.30;99.90;;;;;;4990482;28;20179;-77
2022/12/09 05:45:10;;;;;;;11.60;7.53;;;4.30;99.90;;;;;;4991478;28;21102;-77
2022/12/09 05:47:36;;;;;;;11.05;9.20;;;4.20;99.90;;;;;;4989522;28;20341;-77
2022/12/09 05:50:03;;;;;;;10.30;7.15;;;4.20;99.90;;;;;;4989879;28;20202;-77
2022/12/09 05:52:29;;;;;;;8.75;6.85;;;4.20;99.90;;;;;;4990624;28;20494;-77
2022/12/09 05:54:55;;;;;;;8.27;5.67;;;4.20;99.90;;;;;;4990782;28;20175;-77
2022/12/09 05:57:21;;;;;;;7.20;6.00;;;4.10;99.90;;;;;;4990209;28;20199;-77
2022/12/09 05:59:46;;;;;;;6.78;5.43;;;4.20;99.90;;;;;;4989656;28;20269;-77
2022/12/09 06:02:12;;;;;;;7.83;5.70;;;4.10;99.90;;;;;;4980517;28;20683;-77
2022/12/09 06:04:38;;;;;;;7.57;5.70;;;4.10;99.90;;;;;;4971320;28;20221;-76
2022/12/09 06:07:04;;;;;;;10.53;7.30;;;4.20;99.90;;;;;;4971412;28;20298;-76
2022/12/09 06:09:29;;;;;;;8.30;5.40;;;4.10;99.90;;;;;;4985951;28;20218;-77
2022/12/09 06:11:55;;;;;;;7.90;5.90;;;4.10;99.90;;;;;;4952709;28;20618;-78
2022/12/09 06:14:21;;;;;;;7.13;6.43;;;4.10;99.90;;;;;;4971315;28;20184;-77
2022/12/09 06:16:46;;;;;;;8.07;5.80;;;4.10;99.90;;;;;;4971296;28;20766;-77
2022/12/09 06:19:12;;;;;;;7.90;5.50;;;4.20;99.90;;;;;;4969973;28;20211;-77
2022/12/09 06:21:39;;;;;;;7.07;5.23;;;4.20;99.90;;;;;;4970337;28;20607;-77
2022/12/09 06:24:05;;;;;;;6.63;5.97;;;4.30;99.90;;;;;;4969820;28;20222;-77
2022/12/09 06:26:31;;;;;;;8.10;5.70;;;4.30;99.90;;;;;;4969386;28;20215;-77
2022/12/09 06:28:58;;;;;;;7.87;6.37;;;4.40;99.90;;;;;;4971215;28;20226;-77
2022/12/09 06:31:25;;;;;;;8.38;6.28;;;4.40;99.90;;;;;;4952792;28;20183;-77
2022/12/09 06:33:51;;;;;;;6.20;5.60;;;4.50;99.90;;;;;;4972787;28;20176;-77
2022/12/09 06:36:17;;;;;;;6.40;5.70;;;4.60;99.90;;;;;;4972374;28;20295;-76
2022/12/09 06:38:43;;;;;;;10.90;6.17;;;4.60;99.90;;;;;;4970970;28;20251;-76
2022/12/09 06:41:11;;;;;;;7.50;5.90;;;4.60;99.90;;;;;;4970164;28;20179;-77
2022/12/09 06:43:37;;;;;;;6.88;5.75;;;4.60;99.90;;;;;;4970955;28;20172;-77
2022/12/09 06:46:10;;;;;;;7.63;5.45;;;4.60;99.90;;;;;;4971172;28;20210;-77
2022/12/09 06:48:35;;;;;;;7.68;6.85;;;4.60;99.90;;;;;;4970649;28;20167;-77
2022/12/09 06:51:01;;;;;;;7.60;5.97;;;4.60;99.90;;;;;;4970261;28;20171;-77
2022/12/09 06:53:26;;;;;;;9.80;6.10;;;4.60;99.90;;;;;;4968846;28;20184;-76
2022/12/09 06:55:52;;;;;;;7.27;4.90;;;4.50;99.90;;;;;;4987008;28;20171;-77
2022/12/09 06:58:18;;;;;;;7.43;5.70;;;4.50;99.90;;;;;;4970399;28;20202;-76
2022/12/09 07:00:44;;;;;;;7.30;5.73;;;4.50;99.90;;;;;;4969603;28;20187;-77
2022/12/09 07:03:11;;;;;;;6.77;5.33;;;4.40;99.90;;;;;;4970090;28;20532;-76
2022/12/09 07:05:37;;;;;;;6.20;5.50;;;4.40;99.90;;;;;;4969166;28;20202;-76
2022/12/09 07:08:03;;;;;;;6.78;6.07;;;4.30;99.90;;;;;;4967794;28;20286;-76
2022/12/09 07:10:29;;;;;;;6.77;5.70;;;4.30;99.90;;;;;;4969977;28;20266;-77
2022/12/09 07:12:55;;;;;;;9.50;5.93;;;4.40;99.90;;;;;;4972408;28;20597;-76
2022/12/09 07:15:20;;;;;;;10.20;6.13;;;4.30;99.90;;;;;;4968930;28;20180;-76
2022/12/09 07:17:46;;;;;;;7.70;5.70;;;4.30;99.90;;;;;;4970689;28;20188;-76
2022/12/09 07:20:12;;;;;;;9.63;7.57;;;4.30;99.90;;;;;;4968971;28;20173;-75
2022/12/09 07:22:37;;;;;;;7.90;5.80;;;4.30;99.90;;;;;;4985498;28;20932;-76
2022/12/09 07:25:03;;;;;;;7.00;5.40;;;4.40;99.90;;;;;;4989177;28;20184;-75
2022/12/09 07:27:29;;;;;;;7.25;6.25;;;4.40;99.90;;;;;;4973142;28;20219;-75
2022/12/09 07:29:56;;;;;;;9.10;6.50;;;4.50;99.90;;;;;;4974210;28;20172;-75
2022/12/09 07:32:22;;;;;;;6.60;5.82;;;4.50;99.90;;;;;;4972658;28;20175;-75
2022/12/09 07:34:47;;;;;;;9.10;7.17;;;4.60;99.90;;;;;;4972493;28;20263;-76
2022/12/09 07:37:13;;;;;;;10.53;8.60;;;4.60;99.90;;;;;;4974795;28;20278;-75
2022/12/09 07:39:39;;;;;;;8.03;7.13;;;4.70;99.90;;;;;;4974459;28;20172;-75
2022/12/09 07:42:05;;;;;;;14.13;7.83;;;4.70;99.90;;;;;;4973297;28;20207;-75
2022/12/09 07:44:43;;;;;;;9.35;6.60;;;4.70;99.90;;;;;;4973070;28;20186;-78
2022/12/09 07:47:08;;;;;;;8.80;6.97;;;4.80;99.90;;;;;;4972705;28;20222;-78
2022/12/09 07:49:34;;;;;;;11.57;7.57;;;4.90;99.90;;;;;;4992854;28;20175;-78
2022/12/09 07:52:00;;;;;;;11.90;8.63;;;5.00;99.90;;;;;;4969927;28;20171;-78
2022/12/09 07:54:25;;;;;;;11.53;8.33;;;5.00;99.90;;;;;;4999576;23;20703;-76
2022/12/09 07:56:51;;;;;;;10.50;7.60;;;5.10;99.90;;;;;;4976547;28;20178;-77
2022/12/09 07:59:17;;;;;;;8.30;6.73;;;5.10;99.90;;;;;;4989296;28;20663;-77
2022/12/09 08:01:43;;;;;;;9.83;7.53;;;5.10;99.90;;;;;;4947912;28;20173;-77
2022/12/09 08:04:09;;;;;;;8.23;6.60;;;5.20;99.90;;;;;;4952861;29;20220;-78
2022/12/09 08:06:36;;;;;;;8.67;7.33;;;5.30;99.90;;;;;;4972623;28;20220;-78
2022/12/09 08:09:05;;;;;;;12.25;7.65;;;5.30;99.90;;;;;;4953889;29;20687;-78
2022/12/09 08:11:32;;;;;;;9.52;7.43;;;5.40;99.90;;;;;;4952586;29;20176;-79
2022/12/09 08:14:00;;;;;;;8.27;6.95;;;5.40;99.90;;;;;;4953172;29;20243;-79
2022/12/09 08:16:27;;;;;;;11.32;6.75;;;5.50;99.90;;;;;;4952452;29;20213;-79
2022/12/09 08:18:54;;;;;;;7.93;6.05;;;5.60;99.90;;;;;;4952991;29;20176;-79
2022/12/09 08:21:24;;;;;;;8.45;7.00;;;5.70;99.90;;;;;;4953636;28;20649;-79
2022/12/09 08:23:51;;;;;;;7.55;5.93;;;5.80;99.90;;;;;;4951746;29;20204;-79
2022/12/09 08:26:20;;;;;;;8.57;7.70;;;5.80;99.90;;;;;;4953852;28;20181;-79
2022/12/09 08:28:46;;;;;;;8.52;7.07;;;5.80;99.90;;;;;;4953790;28;20172;-78
2022/12/09 08:31:14;;;;;;;8.25;7.40;;;5.80;99.90;;;;;;4952114;29;20280;-78
2022/12/09 08:33:41;;;;;;;9.63;6.65;;;5.80;99.90;;;;;;4950375;28;20224;-79
2022/12/09 08:36:20;;;;;;;7.38;6.38;;;5.80;99.90;;;;;;4952950;28;20266;-78
2022/12/09 08:38:46;;;;;;;6.55;5.90;;;5.80;99.90;;;;;;4936833;29;20176;-79
2022/12/09 08:41:18;;;;;;;8.88;6.20;;;5.90;99.90;;;;;;4951726;29;20168;-78
2022/12/09 08:43:44;;;;;;;8.48;6.97;;;5.90;99.90;;;;;;4952891;29;20204;-78
2022/12/09 08:46:11;;;;;;;10.25;9.15;;;6.00;99.90;;;;;;4951590;28;20864;-80
2022/12/09 08:48:38;;;;;;;10.65;9.55;;;5.90;99.90;;;;;;4938587;29;20612;-80
2022/12/09 08:51:05;;;;;;;10.27;7.53;;;6.00;99.90;;;;;;4923222;28;20173;-80
2022/12/09 08:53:31;;;;;;;9.02;7.60;;;6.10;99.90;;;;;;4934436;29;20853;-79
2022/12/09 08:55:57;;;;;;;7.30;6.10;;;6.10;99.90;;;;;;4939700;28;20232;-80
2022/12/09 08:58:23;;;;;;;10.13;9.00;;;6.20;99.90;;;;;;4952367;29;20555;-79
2022/12/09 09:00:49;;;;;;;10.27;7.78;;;6.20;99.90;;;;;;4935659;29;20176;-80
2022/12/09 09:03:15;;;;;;;9.20;7.70;;;6.30;99.90;;;;;;4953533;28;20207;-80
2022/12/09 09:05:41;;;;;;;9.18;7.57;;;6.30;99.90;;;;;;4949243;28;20201;-77
2022/12/09 09:08:07;;;;;;;10.80;7.83;;;6.40;99.90;;;;;;4946117;28;20583;-77
2022/12/09 09:10:34;;;;;;;9.40;7.90;;;6.40;99.90;;;;;;4951730;29;20172;-77
2022/12/09 09:13:00;;;;;;;7.82;6.53;;;6.50;99.90;;;;;;4956466;29;20235;-77
2022/12/09 09:15:26;;;;;;;10.90;7.75;;;6.50;99.90;;;;;;4955154;28;20196;-77
2022/12/09 09:17:52;;;;;;;8.50;7.47;;;6.60;99.90;;;;;;4954563;28;20649;-77
2022/12/09 09:20:18;;;;;;;9.00;8.10;;;6.60;99.90;;;;;;4955318;29;20176;-78
2022/12/09 09:22:44;;;;;;;8.57;6.90;;;6.70;99.90;;;;;;4951271;28;20185;-77
2022/12/09 09:25:10;;;;;;;7.97;6.93;;;6.70;99.90;;;;;;4951972;29;20204;-79
2022/12/09 09:27:36;;;;;;;8.53;7.60;;;6.80;99.90;;;;;;4952702;28;20801;-76
2022/12/09 09:30:03;;;;;;;12.50;8.80;;;6.80;99.90;;;;;;4935668;29;20172;-77
2022/12/09 09:32:31;;;;;;;11.45;8.10;;;6.80;99.90;;;;;;4946983;29;20212;-77
2022/12/09 09:34:57;;;;;;;10.25;7.90;;;6.80;99.90;;;;;;4952554;28;20193;-78
2022/12/09 09:37:22;;;;;;;12.20;10.13;;;6.80;99.90;;;;;;4951649;29;20756;-77
2022/12/09 09:39:48;;;;;;;9.50;7.60;;;6.80;99.90;;;;;;4952742;28;20575;-77
2022/12/09 09:42:17;;;;;;;14.93;10.70;;;6.80;99.90;;;;;;4952198;28;20173;-78
2022/12/09 09:44:49;;;;;;;12.38;9.13;;;6.80;99.90;;;;;;4951197;29;20236;-77
2022/12/09 09:47:38;;;;;;;10.88;8.27;;;6.90;99.90;;;;;;4950526;28;20695;-77
2022/12/09 09:50:30;;;;;;;10.23;8.95;;;6.90;99.90;;;;;;4952637;28;20643;-78
2022/12/09 09:52:55;;;;;;;10.23;8.45;;;6.90;99.90;;;;;;4952549;28;20161;-78
2022/12/09 09:56:00;;;;;;;10.10;7.63;;;6.90;99.90;;;;;;4952288;28;20564;-78
2022/12/09 09:58:46;;;;;;;8.82;7.70;;;7.00;99.90;;;;;;4943042;29;20251;-77
2022/12/09 10:01:14;;;;;;;9.48;8.55;;;7.00;99.90;;;;;;4950281;29;20219;-77
2022/12/09 10:03:51;;;;;;;12.20;9.45;;;7.00;99.90;;;;;;4935159;29;20180;-76
2022/12/09 10:06:30;;;;;;;10.60;8.88;;;7.00;99.90;;;;;;4950860;29;20179;-77
2022/12/09 10:09:03;;;;;;;8.55;6.85;;;6.90;99.90;;;;;;4935423;29;20191;-77
2022/12/09 10:11:56;;;;;;;9.90;8.90;;;7.00;99.90;;;;;;4934054;29;20259;-78
2022/12/09 10:14:48;;;;;;;10.95;9.75;;;6.90;99.90;;;;;;4951126;28;20192;-77
2022/12/09 10:17:34;;;;;;;13.20;8.45;;;7.00;99.90;;;;;;4952129;28;20186;-77
2022/12/09 10:20:11;;;;;;;9.52;7.78;;;7.00;99.90;;;;;;4919016;29;20279;-77
2022/12/09 10:22:59;;;;;;;9.63;8.63;;;7.00;99.90;;;;;;4950763;28;20186;-78
2022/12/09 10:25:35;;;;;;;8.80;7.50;;;7.00;99.90;;;;;;4931977;28;20189;-79
2022/12/09 10:28:13;;;;;;;10.68;8.85;;;7.10;99.90;;;;;;4931587;29;20212;-78
2022/12/09 10:30:39;;;;;;;12.45;9.38;;;7.10;99.90;;;;;;4931666;29;20185;-79
2022/12/09 10:33:05;;;;;;;11.60;9.60;;;7.10;99.90;;;;;;4942089;29;20303;-79
2022/12/09 10:35:31;;;;;;;10.97;8.97;;;7.10;99.90;;;;;;4952948;28;20287;-79
2022/12/09 10:38:09;;;;;;;10.88;8.60;;;7.20;99.90;;;;;;4950361;29;20588;-79
2022/12/09 10:40:44;;;;;;;10.82;9.75;;;7.20;99.90;;;;;;4951156;28;20239;-78
2022/12/09 10:43:35;;;;;;;11.57;8.82;;;7.30;99.90;;;;;;4951078;28;20763;-78
2022/12/09 10:46:14;;;;;;;11.68;9.05;;;7.30;99.90;;;;;;4952068;28;20235;-78
2022/12/09 10:48:45;;;;;;;11.25;10.15;;;7.40;99.90;;;;;;4934430;29;20190;-78
2022/12/09 10:51:19;;;;;;;8.77;7.88;;;7.50;99.90;;;;;;4951311;28;20601;-78
2022/12/09 10:54:26;;;;;;;9.95;8.95;;;7.50;99.90;;;;;;4934341;29;20242;-78
2022/12/09 10:57:15;;;;;;;10.43;9.25;;;7.60;99.90;;;;;;4912966;29;20256;-78
2022/12/09 10:59:54;;;;;;;11.07;9.30;;;7.70;99.90;;;;;;4937295;29;20636;-78
2022/12/09 11:02:21;;;;;;;11.93;8.00;;;7.80;99.90;;;;;;4950697;29;20274;-78
2022/12/09 11:04:47;;;;;;;9.18;8.27;;;7.90;99.90;;;;;;4929667;28;20223;-77
2022/12/09 11:07:23;;;;;;;10.70;9.60;;;8.00;99.90;;;;;;4961554;28;20738;-77
2022/12/09 11:09:55;;;;;;;11.73;10.20;;;8.10;99.90;;;;;;4969715;28;20238;-79
2022/12/09 11:12:27;;;;;;;11.25;10.00;;;8.20;99.90;;;;;;4974305;28;20255;-79
2022/12/09 11:14:59;;;;;;;10.52;9.45;;;8.30;99.90;;;;;;4963565;28;20204;-79
2022/12/09 11:17:28;;;;;;;11.88;9.38;;;8.40;99.90;;;;;;4951121;28;20536;-78
2022/12/09 11:20:10;;;;;;;10.55;9.07;;;8.40;99.90;;;;;;4952600;28;20190;-78
2022/12/09 11:22:38;;;;;;;10.95;9.50;;;8.40;99.90;;;;;;4948905;29;20283;-78
2022/12/09 11:25:10;;;;;;;11.35;10.15;;;8.50;99.90;;;;;;4936719;28;20200;-79
2022/12/09 11:27:39;;;;;;;12.05;9.68;;;8.50;99.90;;;;;;4952652;29;20223;-79
2022/12/09 11:30:14;;;;;;;11.82;10.60;;;8.60;99.90;;;;;;4950409;29;20674;-78
2022/12/09 11:32:55;;;;;;;11.32;9.65;;;8.60;99.90;;;;;;4948783;29;20288;-79
2022/12/09 11:35:42;;;;;;;12.32;10.57;;;8.60;99.90;;;;;;4950601;28;20236;-78
2022/12/09 11:38:27;;;;;;;10.98;8.98;;;8.50;99.90;;;;;;4949375;29;20677;-78
2022/12/09 11:41:08;;;;;;;11.10;8.93;;;8.50;99.90;;;;;;4948837;29;20251;-79
2022/12/09 11:43:44;;;;;;;11.15;9.95;;;8.50;99.90;;;;;;4949150;29;20667;-78
2022/12/09 11:46:13;;;;;;;10.07;8.18;;;8.40;99.90;;;;;;4950031;29;20259;-79
2022/12/09 11:48:47;;;;;;;10.48;9.38;;;8.40;99.90;;;;;;4951413;28;20546;-79
2022/12/09 11:51:28;;;;;;;12.93;10.38;;;8.40;99.90;;;;;;4952121;28;20896;-78
2022/12/09 11:54:01;;;;;;;12.55;10.55;;;8.30;99.90;;;;;;4949337;29;20215;-79
2022/12/09 11:56:28;;;;;;;12.88;10.25;;;8.30;99.90;;;;;;4933881;29;20263;-80
2022/12/09 11:59:16;;;;;;;10.73;9.40;;;8.30;99.90;;;;;;4949603;29;20451;-79
2022/12/09 12:01:46;;;;;;;13.25;11.85;;;8.30;99.90;;;;;;4950426;28;20255;-78
2022/12/09 12:04:17;;;;;;;14.70;13.20;;;8.30;99.90;;;;;;4950670;28;20573;-79
2022/12/09 12:06:45;;;;;;;13.60;12.20;;;8.30;99.90;;;;;;4949679;29;20288;-79
2022/12/09 12:09:18;;;;;;;17.63;12.90;;;8.30;99.90;;;;;;4917674;29;20176;-77
2022/12/09 12:11:53;;;;;;;14.70;11.88;;;8.20;99.90;;;;;;4952432;29;20658;-79
2022/12/09 12:14:24;;;;;;;14.10;11.70;;;8.10;99.90;;;;;;4952895;29;20825;-78
2022/12/09 12:17:27;;;;;;;14.55;12.18;;;8.10;99.90;;;;;;4953274;29;20184;-79
2022/12/09 12:19:55;;;;;;;14.55;11.02;;;8.10;99.90;;;;;;4952641;28;20184;-79
2022/12/09 12:22:45;;;;;;;20.75;12.63;;;8.00;99.90;;;;;;4953392;28;20204;-77
2022/12/09 12:25:32;;;;;;;13.55;12.15;;;8.00;99.90;;;;;;4952858;29;20207;-77
2022/12/09 12:28:14;;;;;;;14.98;12.80;;;7.90;99.90;;;;;;4956325;29;20294;-78
2022/12/09 12:30:57;;;;;;;14.82;11.20;;;7.90;99.90;;;;;;4936453;29;20279;-78
2022/12/09 12:33:26;;;;;;;16.52;12.10;;;7.90;99.90;;;;;;4952630;29;20203;-79
2022/12/09 12:35:54;;;;;;;13.98;11.23;;;7.80;99.90;;;;;;4952457;29;20172;-77
2022/12/09 12:38:24;;;;;;;13.18;11.00;;;7.80;99.90;;;;;;4953946;28;20169;-76
2022/12/09 12:40:59;;;;;;;15.23;12.23;;;7.80;99.90;;;;;;4935494;29;20191;-77
2022/12/09 12:46:29;;;;;;;12.93;10.32;;;7.60;99.90;;;;;;4952638;28;20944;-78
2022/12/09 12:49:33;;;;;;;13.63;11.43;;;7.60;99.90;;;;;;4936422;29;20169;-77
2022/12/09 12:52:17;;;;;;;11.55;9.68;;;7.50;99.90;;;;;;4946226;29;20184;-78
2022/12/09 12:55:40;;;;;;;12.52;10.85;;;7.40;99.90;;;;;;4953466;28;20753;-77
2022/12/09 12:58:23;;;;;;;16.15;11.68;;;7.40;99.90;;;;;;4912570;29;20313;-78
2022/12/09 13:01:03;;;;;;;11.32;10.13;;;7.30;99.90;;;;;;4912691;29;20191;-78
2022/12/09 13:04:06;;;;;;;10.40;9.32;;;7.30;99.90;;;;;;4918631;29;20288;-78
2022/12/09 13:06:42;;;;;;;13.27;11.65;;;7.20;99.90;;;;;;4953648;28;20203;-78
2022/12/09 13:09:15;;;;;;;13.38;11.13;;;7.20;99.90;;;;;;4952236;29;20227;-78
2022/12/09 13:11:55;;;;;;;15.52;12.70;;;7.10;99.90;;;;;;4959112;28;20199;-78
2022/12/09 13:14:30;;;;;;;14.40;11.82;;;7.00;99.90;;;;;;4972362;28;20191;-79
2022/12/09 13:16:59;;;;;;;16.35;13.77;;;7.00;99.90;;;;;;4971313;28;20225;-79
2022/12/09 13:19:42;;;;;;;17.60;12.32;;;6.90;99.90;;;;;;4972273;28;20179;-79